Accueil
METAR-TAF:

METAR-TAF

Aéroports :

Kochi, Japon

latitude: 33-32N, longitude: 133-40E, altitude: 7 m

Observation

Le bulletin a été fait il y a 53 minutes, à 08:00 UTC
Vent 9 kt de nord
Température 28°C
Humidité 48%
Pression 1011 hPa
Visibilité 10 km ou plus
Quelques nuages à une hauteur de 2500 ft
Nuages fragmentés

METAR: RJOK 220800Z 35009KT 9999 FEW025 BKN/// 28/16 Q1011

Heure: 17:53 (08:53 UTC)

Prévision

Le bulletin a été fait il y a 3 heures et 46 minutes, à 05:07 UTC
Prévision valable du 22 à 06 UTC au 23 à 12 UTC
Vent 10 kt de nord
Visibilité 10 km ou plus
Quelques nuages à une hauteur de 2500 ft
Evoluant progressivement
du 23 à 00 UTC au 23 à 03 UTC
Vent 6 kt de sud
Evoluant progressivement
du 23 à 09 UTC au 23 à 12 UTC
Vent 6 kt de nord

TAF: RJOK 220507Z 2206/2312 35010KT 9999 FEW025 BECMG 2300/2303 19006KT BECMG 2309/2312 35006KT

Observations et prévisions météorologiques de plus de 4000 aéroports (messages METAR et TAF).

Les stations disponibles sont représentées par des disques jaunes et rouges sur la carte.

Passer la souris dessus pour voir le nom de la station.

Cliquer dessus pour voir les observations et prévisions météorologiques.

Pour changer de carte: cliquez sur les boutons verts avec une croix noire pour zoomer, sur le bouton vert avec un tiret pour effectuer un zoom arrière, ou sur les flèches vertes pour les cartes adjacentes.


METAR-TAF: